sensor_id;sensor_type;location;lat;lon;timestamp;P1;durP1;ratioP1;P2;durP2;ratioP2
12780;SDS011;6454;43.304;24.344;2023-02-03T00:00:40;2.00;;;1.50;;
12780;SDS011;6454;43.304;24.344;2023-02-03T00:03:09;2.57;;;1.60;;
12780;SDS011;6454;43.304;24.344;2023-02-03T00:05:36;1.60;;;1.50;;
12780;SDS011;6454;43.304;24.344;2023-02-03T00:08:03;2.13;;;1.70;;
12780;SDS011;6454;43.304;24.344;2023-02-03T00:10:31;1.50;;;1.20;;
12780;SDS011;6454;43.304;24.344;2023-02-03T00:12:59;1.87;;;1.50;;
12780;SDS011;6454;43.304;24.344;2023-02-03T00:15:26;2.03;;;1.40;;
12780;SDS011;6454;43.304;24.344;2023-02-03T00:17:52;1.67;;;1.40;;
12780;SDS011;6454;43.304;24.344;2023-02-03T00:20:21;2.23;;;1.27;;
12780;SDS011;6454;43.304;24.344;2023-02-03T00:22:47;2.13;;;1.40;;
12780;SDS011;6454;43.304;24.344;2023-02-03T00:25:15;2.10;;;1.57;;
12780;SDS011;6454;43.304;24.344;2023-02-03T00:27:42;1.50;;;1.40;;
12780;SDS011;6454;43.304;24.344;2023-02-03T00:30:10;1.50;;;1.40;;
12780;SDS011;6454;43.304;24.344;2023-02-03T00:32:37;2.57;;;1.50;;
12780;SDS011;6454;43.304;24.344;2023-02-03T00:35:04;1.53;;;1.40;;
12780;SDS011;6454;43.304;24.344;2023-02-03T00:37:33;2.17;;;1.37;;
12780;SDS011;6454;43.304;24.344;2023-02-03T00:40:00;2.73;;;1.40;;
12780;SDS011;6454;43.304;24.344;2023-02-03T00:42:26;1.43;;;1.30;;
12780;SDS011;6454;43.304;24.344;2023-02-03T00:44:53;3.00;;;1.63;;
12780;SDS011;6454;43.304;24.344;2023-02-03T00:47:20;1.60;;;1.47;;
12780;SDS011;6454;43.304;24.344;2023-02-03T00:49:47;1.97;;;1.43;;
12780;SDS011;6454;43.304;24.344;2023-02-03T00:52:14;1.63;;;1.40;;
12780;SDS011;6454;43.304;24.344;2023-02-03T00:54:42;2.23;;;1.50;;
12780;SDS011;6454;43.304;24.344;2023-02-03T00:57:09;2.80;;;1.47;;
12780;SDS011;6454;43.304;24.344;2023-02-03T00:59:36;1.93;;;1.33;;
12780;SDS011;6454;43.304;24.344;2023-02-03T01:02:03;3.90;;;1.97;;
12780;SDS011;6454;43.304;24.344;2023-02-03T01:04:29;2.70;;;1.30;;
12780;SDS011;6454;43.304;24.344;2023-02-03T01:06:56;2.67;;;1.30;;
12780;SDS011;6454;43.304;24.344;2023-02-03T01:09:24;3.80;;;1.50;;
12780;SDS011;6454;43.304;24.344;2023-02-03T01:11:52;3.57;;;1.50;;
12780;SDS011;6454;43.304;24.344;2023-02-03T01:14:19;2.00;;;1.50;;
12780;SDS011;6454;43.304;24.344;2023-02-03T01:16:45;1.60;;;1.50;;
12780;SDS011;6454;43.304;24.344;2023-02-03T01:19:12;4.03;;;1.80;;
12780;SDS011;6454;43.304;24.344;2023-02-03T01:21:41;4.07;;;1.50;;
12780;SDS011;6454;43.304;24.344;2023-02-03T01:24:07;2.93;;;1.43;;
12780;SDS011;6454;43.304;24.344;2023-02-03T01:26:34;2.67;;;1.50;;
12780;SDS011;6454;43.304;24.344;2023-02-03T01:29:03;1.70;;;1.43;;
12780;SDS011;6454;43.304;24.344;2023-02-03T01:31:30;2.57;;;1.27;;
12780;SDS011;6454;43.304;24.344;2023-02-03T01:33:59;2.00;;;1.43;;
12780;SDS011;6454;43.304;24.344;2023-02-03T01:36:27;2.83;;;1.50;;
12780;SDS011;6454;43.304;24.344;2023-02-03T01:38:55;2.23;;;1.50;;
12780;SDS011;6454;43.304;24.344;2023-02-03T01:41:22;2.13;;;1.50;;
12780;SDS011;6454;43.304;24.344;2023-02-03T01:43:51;1.60;;;1.50;;
12780;SDS011;6454;43.304;24.344;2023-02-03T01:46:23;2.70;;;1.67;;
12780;SDS011;6454;43.304;24.344;2023-02-03T01:48:54;2.53;;;1.50;;
12780;SDS011;6454;43.304;24.344;2023-02-03T01:51:26;1.93;;;1.70;;
12780;SDS011;6454;43.304;24.344;2023-02-03T01:53:53;2.90;;;1.53;;
12780;SDS011;6454;43.304;24.344;2023-02-03T01:56:21;1.20;;;1.10;;
12780;SDS011;6454;43.304;24.344;2023-02-03T01:58:50;3.70;;;1.83;;
12780;SDS011;6454;43.304;24.344;2023-02-03T02:01:17;4.57;;;1.90;;
12780;SDS011;6454;43.304;24.344;2023-02-03T02:03:46;2.20;;;1.43;;
12780;SDS011;6454;43.304;24.344;2023-02-03T02:06:17;2.57;;;1.50;;
12780;SDS011;6454;43.304;24.344;2023-02-03T02:08:45;3.43;;;1.70;;
12780;SDS011;6454;43.304;24.344;2023-02-03T02:11:14;2.63;;;1.80;;
12780;SDS011;6454;43.304;24.344;2023-02-03T02:13:43;2.10;;;1.57;;
12780;SDS011;6454;43.304;24.344;2023-02-03T02:16:13;6.03;;;1.87;;
12780;SDS011;6454;43.304;24.344;2023-02-03T02:18:48;3.53;;;2.07;;
12780;SDS011;6454;43.304;24.344;2023-02-03T02:27:49;2.17;;;1.83;;
12780;SDS011;6454;43.304;24.344;2023-02-03T02:30:39;2.87;;;1.90;;
12780;SDS011;6454;43.304;24.344;2023-02-03T02:33:24;2.93;;;2.10;;
12780;SDS011;6454;43.304;24.344;2023-02-03T02:36:04;3.00;;;1.60;;
12780;SDS011;6454;43.304;24.344;2023-02-03T02:38:43;4.30;;;2.20;;
12780;SDS011;6454;43.304;24.344;2023-02-03T02:41:17;2.70;;;2.00;;
12780;SDS011;6454;43.304;24.344;2023-02-03T02:43:49;3.50;;;1.87;;
12780;SDS011;6454;43.304;24.344;2023-02-03T02:46:26;2.70;;;1.90;;
12780;SDS011;6454;43.304;24.344;2023-02-03T02:49:01;2.27;;;2.00;;
12780;SDS011;6454;43.304;24.344;2023-02-03T02:51:32;2.27;;;2.07;;
12780;SDS011;6454;43.304;24.344;2023-02-03T02:54:02;4.30;;;1.93;;
12780;SDS011;6454;43.304;24.344;2023-02-03T02:56:33;2.53;;;2.10;;
12780;SDS011;6454;43.304;24.344;2023-02-03T02:59:02;3.93;;;2.50;;
12780;SDS011;6454;43.304;24.344;2023-02-03T03:01:31;3.77;;;2.50;;
12780;SDS011;6454;43.304;24.344;2023-02-03T03:03:59;2.13;;;1.90;;
12780;SDS011;6454;43.304;24.344;2023-02-03T03:06:31;2.90;;;2.20;;
12780;SDS011;6454;43.304;24.344;2023-02-03T03:09:02;3.60;;;2.43;;
12780;SDS011;6454;43.304;24.344;2023-02-03T03:11:34;2.97;;;2.33;;
12780;SDS011;6454;43.304;24.344;2023-02-03T03:14:05;2.50;;;2.30;;
12780;SDS011;6454;43.304;24.344;2023-02-03T03:16:36;3.10;;;2.20;;
12780;SDS011;6454;43.304;24.344;2023-02-03T03:19:06;2.67;;;2.30;;
12780;SDS011;6454;43.304;24.344;2023-02-03T03:21:36;3.30;;;2.30;;
12780;SDS011;6454;43.304;24.344;2023-02-03T03:24:09;4.23;;;2.23;;
12780;SDS011;6454;43.304;24.344;2023-02-03T03:26:38;4.67;;;2.40;;
12780;SDS011;6454;43.304;24.344;2023-02-03T03:29:11;4.37;;;2.60;;
12780;SDS011;6454;43.304;24.344;2023-02-03T03:31:41;4.50;;;2.77;;
12780;SDS011;6454;43.304;24.344;2023-02-03T03:34:11;3.17;;;2.23;;
12780;SDS011;6454;43.304;24.344;2023-02-03T03:36:40;4.10;;;2.50;;
12780;SDS011;6454;43.304;24.344;2023-02-03T03:39:12;2.47;;;2.27;;
12780;SDS011;6454;43.304;24.344;2023-02-03T03:41:50;4.07;;;2.63;;
12780;SDS011;6454;43.304;24.344;2023-02-03T03:44:25;3.30;;;2.60;;
12780;SDS011;6454;43.304;24.344;2023-02-03T03:46:58;3.17;;;2.60;;
12780;SDS011;6454;43.304;24.344;2023-02-03T03:49:33;3.77;;;2.67;;
12780;SDS011;6454;43.304;24.344;2023-02-03T03:52:03;3.67;;;2.80;;
12780;SDS011;6454;43.304;24.344;2023-02-03T03:54:32;3.40;;;2.80;;
12780;SDS011;6454;43.304;24.344;2023-02-03T03:57:04;3.40;;;2.83;;
12780;SDS011;6454;43.304;24.344;2023-02-03T03:59:39;4.30;;;2.90;;
12780;SDS011;6454;43.304;24.344;2023-02-03T04:02:09;4.07;;;2.73;;
12780;SDS011;6454;43.304;24.344;2023-02-03T04:04:40;3.77;;;2.80;;
12780;SDS011;6454;43.304;24.344;2023-02-03T04:07:08;3.73;;;2.73;;
12780;SDS011;6454;43.304;24.344;2023-02-03T04:09:35;2.83;;;2.50;;
12780;SDS011;6454;43.304;24.344;2023-02-03T04:12:02;2.87;;;2.50;;
12780;SDS011;6454;43.304;24.344;2023-02-03T04:14:31;2.87;;;2.63;;
12780;SDS011;6454;43.304;24.344;2023-02-03T04:16:59;3.83;;;2.60;;
12780;SDS011;6454;43.304;24.344;2023-02-03T04:19:27;3.00;;;2.47;;
12780;SDS011;6454;43.304;24.344;2023-02-03T04:21:55;4.23;;;2.70;;
12780;SDS011;6454;43.304;24.344;2023-02-03T04:24:22;3.47;;;2.60;;
12780;SDS011;6454;43.304;24.344;2023-02-03T04:26:49;5.13;;;2.40;;
12780;SDS011;6454;43.304;24.344;2023-02-03T04:29:15;3.57;;;2.57;;
12780;SDS011;6454;43.304;24.344;2023-02-03T04:31:42;3.57;;;2.37;;
12780;SDS011;6454;43.304;24.344;2023-02-03T04:34:09;3.00;;;2.70;;
12780;SDS011;6454;43.304;24.344;2023-02-03T04:36:36;3.53;;;2.70;;
12780;SDS011;6454;43.304;24.344;2023-02-03T04:39:04;2.93;;;2.60;;
12780;SDS011;6454;43.304;24.344;2023-02-03T04:41:31;3.20;;;2.63;;
12780;SDS011;6454;43.304;24.344;2023-02-03T04:43:58;3.77;;;2.80;;
12780;SDS011;6454;43.304;24.344;2023-02-03T04:46:24;3.20;;;2.53;;
12780;SDS011;6454;43.304;24.344;2023-02-03T04:48:51;4.03;;;2.60;;
12780;SDS011;6454;43.304;24.344;2023-02-03T04:51:18;4.20;;;2.87;;
12780;SDS011;6454;43.304;24.344;2023-02-03T04:53:44;2.77;;;2.57;;
12780;SDS011;6454;43.304;24.344;2023-02-03T04:56:13;3.83;;;2.77;;
12780;SDS011;6454;43.304;24.344;2023-02-03T04:58:40;4.60;;;3.17;;
12780;SDS011;6454;43.304;24.344;2023-02-03T05:01:07;2.47;;;2.27;;
12780;SDS011;6454;43.304;24.344;2023-02-03T05:03:35;2.97;;;2.50;;
12780;SDS011;6454;43.304;24.344;2023-02-03T05:06:02;4.10;;;2.50;;
12780;SDS011;6454;43.304;24.344;2023-02-03T05:08:29;3.40;;;2.80;;
12780;SDS011;6454;43.304;24.344;2023-02-03T05:10:56;3.97;;;2.20;;
12780;SDS011;6454;43.304;24.344;2023-02-03T05:13:24;3.47;;;2.30;;
12780;SDS011;6454;43.304;24.344;2023-02-03T05:15:51;3.43;;;2.90;;
12780;SDS011;6454;43.304;24.344;2023-02-03T05:18:18;3.90;;;2.80;;
12780;SDS011;6454;43.304;24.344;2023-02-03T05:20:45;3.60;;;2.30;;
12780;SDS011;6454;43.304;24.344;2023-02-03T05:23:12;3.43;;;2.57;;
12780;SDS011;6454;43.304;24.344;2023-02-03T05:25:38;4.10;;;3.00;;
12780;SDS011;6454;43.304;24.344;2023-02-03T05:28:05;3.47;;;2.47;;
12780;SDS011;6454;43.304;24.344;2023-02-03T05:30:33;4.03;;;3.10;;
12780;SDS011;6454;43.304;24.344;2023-02-03T05:33:00;3.57;;;2.60;;
12780;SDS011;6454;43.304;24.344;2023-02-03T05:35:27;3.93;;;2.70;;
12780;SDS011;6454;43.304;24.344;2023-02-03T05:37:54;3.93;;;2.43;;
12780;SDS011;6454;43.304;24.344;2023-02-03T05:40:20;3.10;;;2.70;;
12780;SDS011;6454;43.304;24.344;2023-02-03T05:43:04;3.73;;;2.60;;
12780;SDS011;6454;43.304;24.344;2023-02-03T05:45:31;3.90;;;3.10;;
12780;SDS011;6454;43.304;24.344;2023-02-03T05:48:00;4.30;;;2.70;;
12780;SDS011;6454;43.304;24.344;2023-02-03T05:50:27;3.37;;;2.97;;
12780;SDS011;6454;43.304;24.344;2023-02-03T05:52:57;3.40;;;3.00;;
12780;SDS011;6454;43.304;24.344;2023-02-03T05:55:24;4.67;;;3.20;;
12780;SDS011;6454;43.304;24.344;2023-02-03T05:58:06;3.84;;;2.72;;
12780;SDS011;6454;43.304;24.344;2023-02-03T06:00:35;3.60;;;3.17;;
12780;SDS011;6454;43.304;24.344;2023-02-03T06:03:02;4.20;;;3.00;;
12780;SDS011;6454;43.304;24.344;2023-02-03T06:05:30;4.53;;;3.30;;
12780;SDS011;6454;43.304;24.344;2023-02-03T06:07:58;4.10;;;2.60;;
12780;SDS011;6454;43.304;24.344;2023-02-03T06:10:25;5.43;;;3.20;;
12780;SDS011;6454;43.304;24.344;2023-02-03T06:12:53;3.90;;;3.00;;
12780;SDS011;6454;43.304;24.344;2023-02-03T06:15:19;3.20;;;2.90;;
12780;SDS011;6454;43.304;24.344;2023-02-03T06:17:48;3.60;;;3.30;;
12780;SDS011;6454;43.304;24.344;2023-02-03T06:20:16;5.07;;;3.63;;
12780;SDS011;6454;43.304;24.344;2023-02-03T06:22:44;4.97;;;3.50;;
12780;SDS011;6454;43.304;24.344;2023-02-03T06:25:11;4.83;;;3.50;;
12780;SDS011;6454;43.304;24.344;2023-02-03T06:27:38;4.20;;;3.30;;
12780;SDS011;6454;43.304;24.344;2023-02-03T06:30:06;3.67;;;3.00;;
12780;SDS011;6454;43.304;24.344;2023-02-03T06:32:35;3.27;;;2.97;;
12780;SDS011;6454;43.304;24.344;2023-02-03T06:35:03;5.33;;;3.47;;
12780;SDS011;6454;43.304;24.344;2023-02-03T06:37:30;5.80;;;3.73;;
12780;SDS011;6454;43.304;24.344;2023-02-03T06:39:57;4.90;;;3.20;;
12780;SDS011;6454;43.304;24.344;2023-02-03T06:42:24;5.67;;;3.50;;
12780;SDS011;6454;43.304;24.344;2023-02-03T06:44:51;5.50;;;3.80;;
12780;SDS011;6454;43.304;24.344;2023-02-03T06:47:19;3.20;;;2.90;;
12780;SDS011;6454;43.304;24.344;2023-02-03T06:49:45;4.60;;;3.30;;
12780;SDS011;6454;43.304;24.344;2023-02-03T06:52:14;4.07;;;3.37;;
12780;SDS011;6454;43.304;24.344;2023-02-03T06:54:40;3.70;;;3.03;;
12780;SDS011;6454;43.304;24.344;2023-02-03T06:57:07;5.27;;;3.30;;
12780;SDS011;6454;43.304;24.344;2023-02-03T06:59:34;5.67;;;3.10;;
12780;SDS011;6454;43.304;24.344;2023-02-03T07:02:01;4.30;;;2.87;;
12780;SDS011;6454;43.304;24.344;2023-02-03T07:04:28;4.50;;;3.40;;
12780;SDS011;6454;43.304;24.344;2023-02-03T07:06:55;4.27;;;3.30;;
12780;SDS011;6454;43.304;24.344;2023-02-03T07:09:23;4.03;;;3.37;;
12780;SDS011;6454;43.304;24.344;2023-02-03T07:11:50;3.93;;;3.17;;
12780;SDS011;6454;43.304;24.344;2023-02-03T07:14:17;3.83;;;2.97;;
12780;SDS011;6454;43.304;24.344;2023-02-03T07:16:44;3.33;;;2.93;;
12780;SDS011;6454;43.304;24.344;2023-02-03T07:19:11;3.53;;;2.73;;
12780;SDS011;6454;43.304;24.344;2023-02-03T07:21:38;4.03;;;3.00;;
12780;SDS011;6454;43.304;24.344;2023-02-03T07:24:04;3.53;;;3.00;;
12780;SDS011;6454;43.304;24.344;2023-02-03T07:26:33;3.27;;;2.97;;
12780;SDS011;6454;43.304;24.344;2023-02-03T07:29:00;3.97;;;2.63;;
12780;SDS011;6454;43.304;24.344;2023-02-03T07:31:26;4.43;;;3.07;;
12780;SDS011;6454;43.304;24.344;2023-02-03T07:33:53;3.63;;;2.97;;
12780;SDS011;6454;43.304;24.344;2023-02-03T07:36:20;4.10;;;2.90;;
12780;SDS011;6454;43.304;24.344;2023-02-03T07:38:48;2.80;;;2.50;;
12780;SDS011;6454;43.304;24.344;2023-02-03T07:41:15;3.30;;;2.47;;
12780;SDS011;6454;43.304;24.344;2023-02-03T07:43:43;2.97;;;2.63;;
12780;SDS011;6454;43.304;24.344;2023-02-03T07:46:10;3.03;;;2.70;;
12780;SDS011;6454;43.304;24.344;2023-02-03T07:48:36;3.43;;;2.73;;
12780;SDS011;6454;43.304;24.344;2023-02-03T07:51:04;4.17;;;2.80;;
12780;SDS011;6454;43.304;24.344;2023-02-03T07:53:31;3.10;;;2.70;;
12780;SDS011;6454;43.304;24.344;2023-02-03T07:55:58;3.63;;;3.17;;
12780;SDS011;6454;43.304;24.344;2023-02-03T07:58:26;3.73;;;2.80;;
12780;SDS011;6454;43.304;24.344;2023-02-03T08:00:54;3.40;;;2.60;;
12780;SDS011;6454;43.304;24.344;2023-02-03T08:03:21;3.60;;;2.50;;
12780;SDS011;6454;43.304;24.344;2023-02-03T08:05:48;4.00;;;2.90;;
12780;SDS011;6454;43.304;24.344;2023-02-03T08:08:15;3.30;;;2.60;;
12780;SDS011;6454;43.304;24.344;2023-02-03T08:10:41;3.50;;;2.60;;
12780;SDS011;6454;43.304;24.344;2023-02-03T08:13:08;2.93;;;2.63;;
12780;SDS011;6454;43.304;24.344;2023-02-03T08:15:35;3.33;;;2.60;;
12780;SDS011;6454;43.304;24.344;2023-02-03T08:18:03;3.10;;;2.80;;
12780;SDS011;6454;43.304;24.344;2023-02-03T08:20:30;2.90;;;2.57;;
12780;SDS011;6454;43.304;24.344;2023-02-03T08:22:57;3.00;;;2.30;;
12780;SDS011;6454;43.304;24.344;2023-02-03T08:25:24;4.80;;;2.40;;
12780;SDS011;6454;43.304;24.344;2023-02-03T08:27:51;2.93;;;2.20;;
12780;SDS011;6454;43.304;24.344;2023-02-03T08:30:18;2.90;;;2.40;;
12780;SDS011;6454;43.304;24.344;2023-02-03T08:32:45;4.30;;;2.20;;
12780;SDS011;6454;43.304;24.344;2023-02-03T08:35:13;3.03;;;2.20;;
12780;SDS011;6454;43.304;24.344;2023-02-03T08:37:40;7.83;;;2.53;;
12780;SDS011;6454;43.304;24.344;2023-02-03T08:40:07;3.43;;;2.30;;
12780;SDS011;6454;43.304;24.344;2023-02-03T08:42:34;3.77;;;2.33;;
12780;SDS011;6454;43.304;24.344;2023-02-03T08:45:01;2.20;;;2.00;;
12780;SDS011;6454;43.304;24.344;2023-02-03T08:47:28;2.70;;;2.03;;
12780;SDS011;6454;43.304;24.344;2023-02-03T08:49:55;3.50;;;2.00;;
12780;SDS011;6454;43.304;24.344;2023-02-03T08:52:23;2.80;;;2.30;;
12780;SDS011;6454;43.304;24.344;2023-02-03T08:54:50;4.67;;;2.00;;
12780;SDS011;6454;43.304;24.344;2023-02-03T08:57:17;2.80;;;2.20;;
12780;SDS011;6454;43.304;24.344;2023-02-03T08:59:44;3.10;;;2.00;;
12780;SDS011;6454;43.304;24.344;2023-02-03T09:02:13;3.00;;;2.10;;
12780;SDS011;6454;43.304;24.344;2023-02-03T09:04:42;2.20;;;2.00;;
12780;SDS011;6454;43.304;24.344;2023-02-03T09:07:09;4.27;;;2.07;;
12780;SDS011;6454;43.304;24.344;2023-02-03T09:09:38;3.60;;;1.97;;
12780;SDS011;6454;43.304;24.344;2023-02-03T09:12:06;3.77;;;1.80;;
12780;SDS011;6454;43.304;24.344;2023-02-03T09:14:33;2.50;;;1.83;;
12780;SDS011;6454;43.304;24.344;2023-02-03T09:17:00;2.53;;;1.80;;
12780;SDS011;6454;43.304;24.344;2023-02-03T09:19:28;2.30;;;2.10;;
12780;SDS011;6454;43.304;24.344;2023-02-03T09:21:55;1.97;;;1.70;;
12780;SDS011;6454;43.304;24.344;2023-02-03T09:24:22;2.40;;;1.80;;
12780;SDS011;6454;43.304;24.344;2023-02-03T09:26:51;2.00;;;1.80;;
12780;SDS011;6454;43.304;24.344;2023-02-03T09:29:18;2.47;;;1.90;;
12780;SDS011;6454;43.304;24.344;2023-02-03T09:31:45;2.37;;;1.97;;
12780;SDS011;6454;43.304;24.344;2023-02-03T09:34:16;2.87;;;1.90;;
12780;SDS011;6454;43.304;24.344;2023-02-03T09:36:43;2.60;;;1.80;;
12780;SDS011;6454;43.304;24.344;2023-02-03T09:39:10;3.07;;;2.10;;
12780;SDS011;6454;43.304;24.344;2023-02-03T09:44:43;2.37;;;1.80;;
12780;SDS011;6454;43.304;24.344;2023-02-03T09:47:16;1.73;;;1.63;;
12780;SDS011;6454;43.304;24.344;2023-02-03T09:49:47;2.38;;;1.75;;
12780;SDS011;6454;43.304;24.344;2023-02-03T09:52:17;1.70;;;1.60;;
12780;SDS011;6454;43.304;24.344;2023-02-03T09:54:48;2.43;;;1.90;;
12780;SDS011;6454;43.304;24.344;2023-02-03T09:57:21;2.47;;;1.70;;
12780;SDS011;6454;43.304;24.344;2023-02-03T09:59:49;1.50;;;1.40;;
12780;SDS011;6454;43.304;24.344;2023-02-03T10:02:24;1.77;;;1.60;;
12780;SDS011;6454;43.304;24.344;2023-02-03T10:05:03;2.30;;;1.90;;
12780;SDS011;6454;43.304;24.344;2023-02-03T10:07:39;2.05;;;1.83;;
12780;SDS011;6454;43.304;24.344;2023-02-03T10:10:16;1.50;;;1.40;;
12780;SDS011;6454;43.304;24.344;2023-02-03T10:12:54;2.35;;;1.75;;
12780;SDS011;6454;43.304;24.344;2023-02-03T10:15:39;2.17;;;1.50;;
12780;SDS011;6454;43.304;24.344;2023-02-03T10:18:32;1.77;;;1.53;;
12780;SDS011;6454;43.304;24.344;2023-02-03T10:21:09;1.70;;;1.60;;
12780;SDS011;6454;43.304;24.344;2023-02-03T10:23:40;2.33;;;1.63;;
12780;SDS011;6454;43.304;24.344;2023-02-03T10:26:11;3.30;;;1.80;;
12780;SDS011;6454;43.304;24.344;2023-02-03T10:28:44;3.50;;;1.90;;
12780;SDS011;6454;43.304;24.344;2023-02-03T10:31:20;1.60;;;1.50;;
12780;SDS011;6454;43.304;24.344;2023-02-03T10:33:48;1.60;;;1.50;;
12780;SDS011;6454;43.304;24.344;2023-02-03T10:36:22;1.73;;;1.63;;
12780;SDS011;6454;43.304;24.344;2023-02-03T10:38:55;1.45;;;1.35;;
12780;SDS011;6454;43.304;24.344;2023-02-03T10:41:29;2.40;;;1.63;;
12780;SDS011;6454;43.304;24.344;2023-02-03T10:44:05;2.10;;;1.70;;
12780;SDS011;6454;43.304;24.344;2023-02-03T10:46:35;2.47;;;1.83;;
12780;SDS011;6454;43.304;24.344;2023-02-03T10:49:04;1.58;;;1.45;;
12780;SDS011;6454;43.304;24.344;2023-02-03T10:51:33;2.92;;;1.50;;
12780;SDS011;6454;43.304;24.344;2023-02-03T10:54:03;3.80;;;1.90;;
12780;SDS011;6454;43.304;24.344;2023-02-03T10:56:30;1.50;;;1.40;;
12780;SDS011;6454;43.304;24.344;2023-02-03T10:59:03;2.05;;;1.90;;
12780;SDS011;6454;43.304;24.344;2023-02-03T11:01:37;1.77;;;1.50;;
12780;SDS011;6454;43.304;24.344;2023-02-03T11:04:18;1.97;;;1.50;;
12780;SDS011;6454;43.304;24.344;2023-02-03T11:06:53;2.03;;;1.70;;
12780;SDS011;6454;43.304;24.344;2023-02-03T11:09:22;2.47;;;1.80;;
12780;SDS011;6454;43.304;24.344;2023-02-03T11:12:06;2.43;;;1.80;;
12780;SDS011;6454;43.304;24.344;2023-02-03T11:14:39;2.73;;;2.00;;
12780;SDS011;6454;43.304;24.344;2023-02-03T11:17:08;2.30;;;2.03;;
12780;SDS011;6454;43.304;24.344;2023-02-03T11:19:41;2.92;;;1.90;;
12780;SDS011;6454;43.304;24.344;2023-02-03T11:22:10;1.88;;;1.50;;
12780;SDS011;6454;43.304;24.344;2023-02-03T11:24:38;2.30;;;2.10;;
12780;SDS011;6454;43.304;24.344;2023-02-03T11:27:09;1.80;;;1.70;;
12780;SDS011;6454;43.304;24.344;2023-02-03T11:29:42;2.30;;;2.08;;
12780;SDS011;6454;43.304;24.344;2023-02-03T11:32:15;2.38;;;2.03;;
12780;SDS011;6454;43.304;24.344;2023-02-03T11:34:45;2.83;;;2.05;;
12780;SDS011;6454;43.304;24.344;2023-02-03T11:37:28;2.40;;;1.85;;
12780;SDS011;6454;43.304;24.344;2023-02-03T11:40:11;2.95;;;1.98;;
12780;SDS011;6454;43.304;24.344;2023-02-03T11:42:58;2.45;;;1.92;;
12780;SDS011;6454;43.304;24.344;2023-02-03T11:45:29;2.63;;;1.90;;
12780;SDS011;6454;43.304;24.344;2023-02-03T11:48:06;2.10;;;1.90;;
12780;SDS011;6454;43.304;24.344;2023-02-03T11:50:43;2.15;;;1.70;;
12780;SDS011;6454;43.304;24.344;2023-02-03T11:53:24;2.35;;;2.00;;
12780;SDS011;6454;43.304;24.344;2023-02-03T11:56:01;2.67;;;1.98;;
12780;SDS011;6454;43.304;24.344;2023-02-03T11:58:46;3.20;;;1.95;;
12780;SDS011;6454;43.304;24.344;2023-02-03T12:01:48;3.10;;;1.90;;
12780;SDS011;6454;43.304;24.344;2023-02-03T12:07:29;1.73;;;1.63;;
12780;SDS011;6454;43.304;24.344;2023-02-03T12:10:12;2.10;;;1.58;;
12780;SDS011;6454;43.304;24.344;2023-02-03T12:12:50;3.63;;;1.88;;
12780;SDS011;6454;43.304;24.344;2023-02-03T12:15:28;1.67;;;1.50;;
12780;SDS011;6454;43.304;24.344;2023-02-03T12:18:25;1.58;;;1.48;;
12780;SDS011;6454;43.304;24.344;2023-02-03T12:21:06;2.00;;;1.58;;
12780;SDS011;6454;43.304;24.344;2023-02-03T12:23:47;2.17;;;1.52;;
12780;SDS011;6454;43.304;24.344;2023-02-03T12:26:22;1.85;;;1.50;;
12780;SDS011;6454;43.304;24.344;2023-02-03T12:28:55;1.73;;;1.63;;
12780;SDS011;6454;43.304;24.344;2023-02-03T12:31:30;2.20;;;1.55;;
12780;SDS011;6454;43.304;24.344;2023-02-03T12:34:05;1.80;;;1.70;;
12780;SDS011;6454;43.304;24.344;2023-02-03T12:36:41;2.10;;;1.60;;
12780;SDS011;6454;43.304;24.344;2023-02-03T12:39:14;1.85;;;1.58;;
12780;SDS011;6454;43.304;24.344;2023-02-03T12:41:47;3.03;;;1.60;;
12780;SDS011;6454;43.304;24.344;2023-02-03T12:44:19;1.60;;;1.50;;
12780;SDS011;6454;43.304;24.344;2023-02-03T12:46:52;1.70;;;1.60;;
12780;SDS011;6454;43.304;24.344;2023-02-03T12:49:29;1.70;;;1.60;;
12780;SDS011;6454;43.304;24.344;2023-02-03T12:52:02;1.55;;;1.40;;
12780;SDS011;6454;43.304;24.344;2023-02-03T12:54:37;4.00;;;1.75;;
12780;SDS011;6454;43.304;24.344;2023-02-03T12:57:14;1.80;;;1.70;;
12780;SDS011;6454;43.304;24.344;2023-02-03T12:59:49;2.88;;;1.73;;
12780;SDS011;6454;43.304;24.344;2023-02-03T13:02:34;2.33;;;2.05;;
12780;SDS011;6454;43.304;24.344;2023-02-03T13:05:16;1.75;;;1.45;;
12780;SDS011;6454;43.304;24.344;2023-02-03T13:07:48;1.60;;;1.48;;
12780;SDS011;6454;43.304;24.344;2023-02-03T13:10:20;1.52;;;1.42;;
12780;SDS011;6454;43.304;24.344;2023-02-03T13:12:52;1.63;;;1.38;;
12780;SDS011;6454;43.304;24.344;2023-02-03T13:15:24;1.95;;;1.73;;
12780;SDS011;6454;43.304;24.344;2023-02-03T13:17:54;4.95;;;1.90;;
12780;SDS011;6454;43.304;24.344;2023-02-03T13:20:26;6.22;;;1.70;;
12780;SDS011;6454;43.304;24.344;2023-02-03T13:22:55;2.80;;;1.60;;
12780;SDS011;6454;43.304;24.344;2023-02-03T13:25:23;2.40;;;1.77;;
12780;SDS011;6454;43.304;24.344;2023-02-03T13:27:58;2.65;;;1.67;;
12780;SDS011;6454;43.304;24.344;2023-02-03T13:30:42;3.00;;;1.30;;
12780;SDS011;6454;43.304;24.344;2023-02-03T13:33:29;2.13;;;1.50;;
12780;SDS011;6454;43.304;24.344;2023-02-03T13:36:10;1.67;;;1.50;;
12780;SDS011;6454;43.304;24.344;2023-02-03T13:38:56;2.50;;;1.60;;
12780;SDS011;6454;43.304;24.344;2023-02-03T13:41:41;3.38;;;1.67;;
12780;SDS011;6454;43.304;24.344;2023-02-03T13:44:14;2.00;;;1.73;;
12780;SDS011;6454;43.304;24.344;2023-02-03T13:46:46;2.40;;;1.80;;
12780;SDS011;6454;43.304;24.344;2023-02-03T13:49:17;2.20;;;1.80;;
12780;SDS011;6454;43.304;24.344;2023-02-03T13:51:50;2.40;;;1.80;;
12780;SDS011;6454;43.304;24.344;2023-02-03T13:54:20;2.67;;;1.63;;
12780;SDS011;6454;43.304;24.344;2023-02-03T13:56:52;1.60;;;1.40;;
12780;SDS011;6454;43.304;24.344;2023-02-03T13:59:27;3.03;;;1.60;;
12780;SDS011;6454;43.304;24.344;2023-02-03T14:04:56;2.70;;;1.93;;
12780;SDS011;6454;43.304;24.344;2023-02-03T14:07:30;2.92;;;1.83;;
12780;SDS011;6454;43.304;24.344;2023-02-03T14:10:05;2.17;;;1.27;;
12780;SDS011;6454;43.304;24.344;2023-02-03T14:12:54;2.17;;;1.60;;
12780;SDS011;6454;43.304;24.344;2023-02-03T14:15:30;2.27;;;1.70;;
12780;SDS011;6454;43.304;24.344;2023-02-03T14:18:02;1.87;;;1.70;;
12780;SDS011;6454;43.304;24.344;2023-02-03T14:20:42;2.37;;;1.73;;
12780;SDS011;6454;43.304;24.344;2023-02-03T14:23:16;1.60;;;1.30;;
12780;SDS011;6454;43.304;24.344;2023-02-03T14:25:47;1.83;;;1.53;;
12780;SDS011;6454;43.304;24.344;2023-02-03T14:28:18;1.20;;;1.10;;
12780;SDS011;6454;43.304;24.344;2023-02-03T14:31:07;2.30;;;1.20;;
12780;SDS011;6454;43.304;24.344;2023-02-03T14:33:49;2.37;;;1.30;;
12780;SDS011;6454;43.304;24.344;2023-02-03T14:36:32;2.83;;;1.90;;
12780;SDS011;6454;43.304;24.344;2023-02-03T14:42:03;1.47;;;1.37;;
12780;SDS011;6454;43.304;24.344;2023-02-03T14:44:41;1.93;;;1.37;;
12780;SDS011;6454;43.304;24.344;2023-02-03T14:47:21;1.50;;;1.10;;
12780;SDS011;6454;43.304;24.344;2023-02-03T14:50:04;2.33;;;1.57;;
12780;SDS011;6454;43.304;24.344;2023-02-03T14:55:41;2.07;;;1.40;;
12780;SDS011;6454;43.304;24.344;2023-02-03T14:58:19;1.30;;;1.20;;
12780;SDS011;6454;43.304;24.344;2023-02-03T15:00:52;1.40;;;1.30;;
12780;SDS011;6454;43.304;24.344;2023-02-03T15:03:21;1.77;;;1.30;;
12780;SDS011;6454;43.304;24.344;2023-02-03T15:05:50;3.37;;;1.70;;
12780;SDS011;6454;43.304;24.344;2023-02-03T15:08:35;1.90;;;1.30;;
12780;SDS011;6454;43.304;24.344;2023-02-03T15:11:27;1.97;;;1.60;;
12780;SDS011;6454;43.304;24.344;2023-02-03T15:14:12;2.23;;;1.60;;
12780;SDS011;6454;43.304;24.344;2023-02-03T15:16:44;1.60;;;1.50;;
12780;SDS011;6454;43.304;24.344;2023-02-03T15:19:14;3.80;;;1.60;;
12780;SDS011;6454;43.304;24.344;2023-02-03T15:21:43;1.90;;;1.50;;
12780;SDS011;6454;43.304;24.344;2023-02-03T15:24:14;1.97;;;1.67;;
12780;SDS011;6454;43.304;24.344;2023-02-03T15:26:46;3.37;;;1.70;;
12780;SDS011;6454;43.304;24.344;2023-02-03T15:29:20;3.10;;;1.70;;
12780;SDS011;6454;43.304;24.344;2023-02-03T15:31:52;3.60;;;1.63;;